createdAt,value
2022-08-03T00:00:02.621Z,5.60
2022-08-03T00:01:17.327Z,5.38
2022-08-03T00:02:20.057Z,5.43
2022-08-03T00:03:23.893Z,5.35
2022-08-03T00:04:33.948Z,5.72
2022-08-03T00:05:37.320Z,5.72
2022-08-03T00:06:40.183Z,5.53
2022-08-03T00:07:42.757Z,6.57
2022-08-03T00:08:47.111Z,6.03
2022-08-03T00:09:50.560Z,5.70
2022-08-03T00:10:53.164Z,5.68
2022-08-03T00:11:55.853Z,6.22
2022-08-03T00:12:58.471Z,5.95
2022-08-03T00:14:01.290Z,6.50
2022-08-03T00:15:04.636Z,5.45
2022-08-03T00:16:13.532Z,5.97
2022-08-03T00:17:16.145Z,6.10
2022-08-03T00:18:19.317Z,5.93
2022-08-03T00:19:22.013Z,5.55
2022-08-03T00:20:24.890Z,5.85
2022-08-03T00:21:28.088Z,6.13
2022-08-03T00:22:30.674Z,5.45
2022-08-03T00:23:51.773Z,5.80
2022-08-03T00:24:55.712Z,6.35
2022-08-03T00:25:58.303Z,6.63
2022-08-03T00:27:00.854Z,6.15
2022-08-03T00:28:06.474Z,6.38
2022-08-03T00:29:11.545Z,6.03
2022-08-03T00:30:14.271Z,6.28
2022-08-03T00:31:26.475Z,5.43
2022-08-03T00:32:44.316Z,5.70
2022-08-03T00:33:59.512Z,5.72
2022-08-03T00:35:03.158Z,5.75
2022-08-03T00:36:11.767Z,6.05
2022-08-03T00:37:14.345Z,5.97
2022-08-03T00:38:20.112Z,5.75
2022-08-03T00:39:22.531Z,5.88
2022-08-03T00:40:25.207Z,5.90
2022-08-03T00:41:27.788Z,6.03
2022-08-03T00:42:30.542Z,5.25
2022-08-03T00:43:32.983Z,5.68
2022-08-03T00:44:46.826Z,4.50
2022-08-03T00:45:51.049Z,4.72
2022-08-03T00:46:53.816Z,5.18
2022-08-03T00:47:56.864Z,6.20
2022-08-03T00:48:59.675Z,4.97
2022-08-03T00:50:03.895Z,5.40
2022-08-03T00:51:06.983Z,5.85
2022-08-03T00:52:10.780Z,5.93
2022-08-03T00:53:13.649Z,5.68
2022-08-03T00:54:16.371Z,5.55
2022-08-03T00:55:19.179Z,6.43
2022-08-03T00:56:21.868Z,5.65
2022-08-03T00:57:24.567Z,5.63
2022-08-03T00:58:27.252Z,5.53
2022-08-03T00:59:30.229Z,5.65
2022-08-03T01:00:36.127Z,5.22
2022-08-03T01:01:38.788Z,5.55
2022-08-03T01:02:41.999Z,5.82
2022-08-03T01:03:44.628Z,5.75
2022-08-03T01:04:47.267Z,5.32
2022-08-03T01:06:19.243Z,6.18
2022-08-03T01:07:21.846Z,5.13
2022-08-03T01:08:36.319Z,6.13
2022-08-03T01:09:48.012Z,5.28
2022-08-03T01:10:56.640Z,5.88
2022-08-03T01:12:22.909Z,6.38
2022-08-03T01:14:00.306Z,6.10
2022-08-03T01:15:07.600Z,6.90
2022-08-03T01:16:16.156Z,7.35
2022-08-03T01:17:25.555Z,7.53
2022-08-03T01:19:08.651Z,7.72
2022-08-03T01:20:13.886Z,7.53
2022-08-03T01:21:28.791Z,7.10
2022-08-03T01:22:53.771Z,7.07
2022-08-03T01:24:05.379Z,6.85
2022-08-03T01:25:24.610Z,7.30
2022-08-03T01:26:51.855Z,6.43
2022-08-03T01:27:57.424Z,6.43
2022-08-03T01:29:07.938Z,6.13
2022-08-03T01:30:12.206Z,6.85
2022-08-03T01:31:17.570Z,7.05
2022-08-03T01:32:59.600Z,7.38
2022-08-03T01:33:57.902Z,6.25
2022-08-03T01:35:13.399Z,6.55
2022-08-03T01:36:22.781Z,6.65
2022-08-03T01:37:32.268Z,6.47
2022-08-03T01:38:37.117Z,6.65
2022-08-03T01:39:40.249Z,6.88
2022-08-03T01:40:44.975Z,6.20
2022-08-03T01:41:59.827Z,6.28
2022-08-03T01:43:03.847Z,6.03
2022-08-03T01:44:29.378Z,6.32
2022-08-03T01:45:33.965Z,6.72
2022-08-03T01:46:38.830Z,6.85
2022-08-03T01:47:42.833Z,6.40
2022-08-03T01:48:48.501Z,6.50
2022-08-03T01:49:52.620Z,6.38
2022-08-03T01:50:56.310Z,6.22
2022-08-03T01:52:04.049Z,6.85
2022-08-03T01:53:09.357Z,6.05
2022-08-03T01:54:12.564Z,6.68
2022-08-03T01:55:19.025Z,7.65
2022-08-03T01:56:24.472Z,6.65
2022-08-03T01:57:28.461Z,6.88
2022-08-03T01:58:32.121Z,7.47
2022-08-03T01:59:35.649Z,7.60
2022-08-03T02:00:39.026Z,6.72
2022-08-03T02:02:28.107Z,7.38
2022-08-03T02:03:06.416Z,7.20
2022-08-03T02:04:10.030Z,7.03
2022-08-03T02:05:14.382Z,7.45
2022-08-03T02:07:01.507Z,6.85
2022-08-03T02:07:42.801Z,7.32
2022-08-03T02:08:45.944Z,6.72
2022-08-03T02:09:51.793Z,6.75
2022-08-03T02:10:57.095Z,8.27
2022-08-03T02:12:00.868Z,7.13
2022-08-03T02:13:05.592Z,6.85
2022-08-03T02:14:08.826Z,6.75
2022-08-03T02:15:12.682Z,7.20
2022-08-03T02:16:18.452Z,7.60
2022-08-03T02:17:39.144Z,6.70
2022-08-03T02:18:43.501Z,7.00
2022-08-03T02:19:47.317Z,6.53
2022-08-03T02:20:50.689Z,6.13
2022-08-03T02:21:56.874Z,7.10
2022-08-03T02:23:03.782Z,6.97
2022-08-03T02:24:06.854Z,6.78
2022-08-03T02:25:11.504Z,6.68
2022-08-03T02:26:16.418Z,7.18
2022-08-03T02:27:21.909Z,6.75
2022-08-03T02:28:31.675Z,6.35
2022-08-03T02:29:39.515Z,6.43
2022-08-03T02:30:46.134Z,6.43
2022-08-03T02:31:56.985Z,5.82
2022-08-03T02:33:00.012Z,6.15
2022-08-03T02:34:04.990Z,6.53
2022-08-03T02:35:11.352Z,6.55
2022-08-03T02:36:15.051Z,6.57
2022-08-03T02:37:19.776Z,6.97
2022-08-03T02:38:26.798Z,6.25
2022-08-03T02:39:31.812Z,6.72
2022-08-03T02:40:34.520Z,6.05
2022-08-03T02:41:52.762Z,5.78
2022-08-03T02:42:59.974Z,5.78
2022-08-03T02:44:05.959Z,5.43
2022-08-03T02:45:14.150Z,6.50
2022-08-03T02:46:18.832Z,6.32
2022-08-03T02:47:21.992Z,6.40
2022-08-03T02:48:28.364Z,6.55
2022-08-03T02:49:41.097Z,6.97
2022-08-03T02:50:55.793Z,6.25
2022-08-03T02:51:59.765Z,6.30
2022-08-03T02:53:03.839Z,6.53
2022-08-03T02:54:09.427Z,7.10
2022-08-03T02:55:12.722Z,6.63
2022-08-03T02:56:17.147Z,6.20
2022-08-03T02:57:20.786Z,6.50
2022-08-03T02:58:24.247Z,6.70
2022-08-03T02:59:28.176Z,6.75
2022-08-03T03:00:34.824Z,6.13
2022-08-03T03:01:38.575Z,6.40
2022-08-03T03:02:43.936Z,6.72
2022-08-03T03:03:49.201Z,6.15
2022-08-03T03:05:54.712Z,6.25
2022-08-03T03:06:17.516Z,6.57
2022-08-03T03:07:22.425Z,6.53
2022-08-03T03:08:28.454Z,6.97
2022-08-03T03:09:39.985Z,6.82
2022-08-03T03:10:43.567Z,5.82
2022-08-03T03:11:46.565Z,6.57
2022-08-03T03:12:52.277Z,6.32
2022-08-03T03:13:57.611Z,5.85
2022-08-03T03:15:00.181Z,6.07
2022-08-03T03:16:04.962Z,6.47
2022-08-03T03:17:09.586Z,7.07
2022-08-03T03:18:13.011Z,6.00
2022-08-03T03:19:16.479Z,6.20
2022-08-03T03:20:30.092Z,6.40
2022-08-03T03:21:33.958Z,6.38
2022-08-03T03:22:36.841Z,6.22
2022-08-03T03:23:40.976Z,7.43
2022-08-03T03:24:44.787Z,7.22
2022-08-03T03:25:47.566Z,6.47
2022-08-03T03:26:50.344Z,6.07
2022-08-03T03:27:53.293Z,6.57
2022-08-03T03:28:56.189Z,6.40
2022-08-03T03:29:58.932Z,6.57
2022-08-03T03:31:01.845Z,6.88
2022-08-03T03:32:04.852Z,6.20
2022-08-03T03:33:12.806Z,6.57
2022-08-03T03:34:15.739Z,6.75
2022-08-03T03:35:19.364Z,6.47
2022-08-03T03:36:21.916Z,6.95
2022-08-03T03:37:24.770Z,6.65
2022-08-03T03:38:27.725Z,6.38
2022-08-03T03:39:30.452Z,6.80
2022-08-03T03:40:34.951Z,6.47
2022-08-03T03:41:37.644Z,6.07
2022-08-03T03:42:40.595Z,6.32
2022-08-03T03:43:43.692Z,5.82
2022-08-03T03:44:46.346Z,6.18
2022-08-03T03:45:49.715Z,6.18
2022-08-03T03:46:52.347Z,5.95
2022-08-03T03:47:54.954Z,6.47
2022-08-03T03:48:58.148Z,6.53
2022-08-03T03:50:02.301Z,6.30
2022-08-03T03:51:05.406Z,6.55
2022-08-03T03:52:08.053Z,7.07
2022-08-03T03:53:11.881Z,6.20
2022-08-03T03:54:14.590Z,6.10
2022-08-03T03:55:19.847Z,5.88
2022-08-03T03:56:22.493Z,6.90
2022-08-03T03:57:26.225Z,6.15
2022-08-03T03:58:28.903Z,6.07
2022-08-03T03:59:31.596Z,5.68
2022-08-03T04:00:38.713Z,6.13
2022-08-03T04:01:41.414Z,6.93
2022-08-03T04:02:45.692Z,6.85
2022-08-03T04:03:48.330Z,6.22
2022-08-03T04:05:09.572Z,6.30
2022-08-03T04:06:31.897Z,5.95
2022-08-03T04:08:17.693Z,5.97
2022-08-03T04:09:39.007Z,5.95
2022-08-03T04:10:59.185Z,6.47
2022-08-03T04:12:02.198Z,6.20
2022-08-03T04:13:07.454Z,6.38
2022-08-03T04:14:33.967Z,6.22
2022-08-03T04:15:38.626Z,6.70
2022-08-03T04:16:47.750Z,6.55
2022-08-03T04:17:51.105Z,5.88
2022-08-03T04:18:59.833Z,5.85
2022-08-03T04:20:03.884Z,5.78
2022-08-03T04:21:10.402Z,5.63
2022-08-03T04:22:15.918Z,5.88
2022-08-03T04:23:21.610Z,5.93
2022-08-03T04:24:26.590Z,6.05
2022-08-03T04:25:33.464Z,6.10
2022-08-03T04:26:39.426Z,5.88
2022-08-03T04:27:42.385Z,5.75
2022-08-03T04:28:46.181Z,6.00
2022-08-03T04:29:52.363Z,6.18
2022-08-03T04:30:57.183Z,6.53
2022-08-03T04:32:01.239Z,5.93
2022-08-03T04:33:06.791Z,6.45
2022-08-03T04:34:09.473Z,5.47
2022-08-03T04:35:12.281Z,6.07
2022-08-03T04:36:17.581Z,5.78
2022-08-03T04:37:32.213Z,5.57
2022-08-03T04:38:40.759Z,6.43
2022-08-03T04:39:44.896Z,5.63
2022-08-03T04:40:48.422Z,5.93
2022-08-03T04:42:08.223Z,6.22
2022-08-03T04:43:14.121Z,5.72
2022-08-03T04:44:18.397Z,5.93
2022-08-03T04:45:21.737Z,6.03
2022-08-03T04:46:27.266Z,5.47
2022-08-03T04:47:32.435Z,5.45
2022-08-03T04:48:35.446Z,5.38
2022-08-03T04:49:38.792Z,6.18
2022-08-03T04:50:42.309Z,5.32
2022-08-03T04:51:45.122Z,6.50
2022-08-03T04:52:48.036Z,6.03
2022-08-03T04:53:50.788Z,6.80
2022-08-03T04:54:53.544Z,7.47
2022-08-03T04:55:56.110Z,6.80
2022-08-03T04:57:04.055Z,6.50
2022-08-03T04:58:06.722Z,6.93
2022-08-03T04:59:10.408Z,6.70
2022-08-03T05:00:13.596Z,6.57
2022-08-03T05:01:17.170Z,6.13
2022-08-03T05:02:20.133Z,6.97
2022-08-03T05:03:25.038Z,6.47
2022-08-03T05:04:27.948Z,6.97
2022-08-03T05:05:48.955Z,6.07
2022-08-03T05:06:55.013Z,6.32
2022-08-03T05:07:58.135Z,6.68
2022-08-03T05:09:03.845Z,6.35
2022-08-03T05:10:14.846Z,6.90
2022-08-03T05:11:18.415Z,5.90
2022-08-03T05:12:21.033Z,6.40
2022-08-03T05:13:23.660Z,6.55
2022-08-03T05:14:28.068Z,6.60
2022-08-03T05:15:30.927Z,6.07
2022-08-03T05:16:33.540Z,6.78
2022-08-03T05:17:36.953Z,5.78
2022-08-03T05:18:39.780Z,6.53
2022-08-03T05:19:42.565Z,5.97
2022-08-03T05:20:45.294Z,5.50
2022-08-03T05:21:52.517Z,6.65
2022-08-03T05:22:55.741Z,5.75
2022-08-03T05:23:58.346Z,5.68
2022-08-03T05:25:02.194Z,6.03
2022-08-03T05:26:04.736Z,5.63
2022-08-03T05:27:07.334Z,5.90
2022-08-03T05:28:09.946Z,5.60
2022-08-03T05:29:12.418Z,5.85
2022-08-03T05:30:31.203Z,6.38
2022-08-03T05:31:36.507Z,5.93
2022-08-03T05:32:39.287Z,5.28
2022-08-03T05:33:43.706Z,5.55
2022-08-03T05:34:46.300Z,5.28
2022-08-03T05:35:57.882Z,5.65
2022-08-03T05:37:07.380Z,6.00
2022-08-03T05:38:10.472Z,6.30
2022-08-03T05:39:13.120Z,6.43
2022-08-03T05:40:15.707Z,6.80
2022-08-03T05:41:21.457Z,5.70
2022-08-03T05:42:26.490Z,6.28
2022-08-03T05:43:32.037Z,6.43
2022-08-03T05:44:34.676Z,6.47
2022-08-03T05:45:38.329Z,6.80
2022-08-03T05:46:40.998Z,7.35
2022-08-03T05:47:46.543Z,6.68
2022-08-03T05:48:49.418Z,6.43
2022-08-03T05:49:52.274Z,6.97
2022-08-03T05:50:54.994Z,6.82
2022-08-03T05:52:00.457Z,6.18
2022-08-03T05:53:14.604Z,6.70
2022-08-03T05:54:18.255Z,6.47
2022-08-03T05:55:20.902Z,6.82
2022-08-03T05:56:27.527Z,6.63
2022-08-03T05:57:30.087Z,7.53
2022-08-03T05:58:32.743Z,6.18
2022-08-03T05:59:38.887Z,5.88
2022-08-03T06:00:41.484Z,5.70
2022-08-03T06:01:44.294Z,6.00
2022-08-03T06:02:47.084Z,6.93
2022-08-03T06:03:50.173Z,6.85
2022-08-03T06:04:52.756Z,6.90
2022-08-03T06:06:00.590Z,6.05
2022-08-03T06:07:03.553Z,6.68
2022-08-03T06:08:06.175Z,6.13
2022-08-03T06:09:08.717Z,7.13
2022-08-03T06:10:36.858Z,6.93
2022-08-03T06:11:34.462Z,6.95
2022-08-03T06:12:37.281Z,6.47
2022-08-03T06:13:39.895Z,7.03
2022-08-03T06:14:42.679Z,6.72
2022-08-03T06:15:45.404Z,6.85
2022-08-03T06:16:48.105Z,7.28
2022-08-03T06:17:51.554Z,7.35
2022-08-03T06:18:54.112Z,6.53
2022-08-03T06:19:56.852Z,6.90
2022-08-03T06:21:13.985Z,7.25
2022-08-03T06:22:18.708Z,7.13
2022-08-03T06:23:21.603Z,6.18
2022-08-03T06:24:25.113Z,5.75
2022-08-03T06:25:27.965Z,6.57
2022-08-03T06:26:30.552Z,6.78
2022-08-03T06:27:37.231Z,5.90
2022-08-03T06:28:52.157Z,6.00
2022-08-03T06:29:56.031Z,6.25
2022-08-03T06:30:59.325Z,6.75
2022-08-03T06:32:02.085Z,7.10
2022-08-03T06:33:04.623Z,7.00
2022-08-03T06:34:32.354Z,7.05
2022-08-03T06:35:33.913Z,6.97
2022-08-03T06:36:38.944Z,6.38
2022-08-03T06:37:49.369Z,6.38
2022-08-03T06:38:51.953Z,6.80
2022-08-03T06:39:55.507Z,6.80
2022-08-03T06:40:58.087Z,6.95
2022-08-03T06:42:00.888Z,7.03
2022-08-03T06:43:04.146Z,6.80
2022-08-03T06:44:06.700Z,6.78
2022-08-03T06:45:09.927Z,7.18
2022-08-03T06:46:12.446Z,6.85
2022-08-03T06:47:15.289Z,6.85
2022-08-03T06:48:17.865Z,6.75
2022-08-03T06:49:20.590Z,5.93
2022-08-03T06:50:26.265Z,5.13
2022-08-03T06:52:03.132Z,6.20
2022-08-03T06:52:52.171Z,5.53
2022-08-03T06:53:54.772Z,6.13
2022-08-03T06:54:57.842Z,5.10
2022-08-03T06:56:00.626Z,5.10
2022-08-03T06:57:03.880Z,5.13
2022-08-03T06:58:06.588Z,4.90
2022-08-03T06:59:09.279Z,4.30
2022-08-03T07:00:31.947Z,5.00
2022-08-03T07:01:34.650Z,4.90
2022-08-03T07:02:37.195Z,5.68
2022-08-03T07:03:52.308Z,5.18
2022-08-03T07:04:55.409Z,4.65
2022-08-03T07:05:58.286Z,5.25
2022-08-03T07:07:00.950Z,5.47
2022-08-03T07:08:03.866Z,4.80
2022-08-03T07:09:06.546Z,5.00
2022-08-03T07:10:09.813Z,5.30
2022-08-03T07:11:12.432Z,5.05
2022-08-03T07:12:15.149Z,5.63
2022-08-03T07:13:17.780Z,4.97
2022-08-03T07:14:20.376Z,5.22
2022-08-03T07:15:54.116Z,4.95
2022-08-03T07:16:46.024Z,4.95
2022-08-03T07:17:48.602Z,4.95
2022-08-03T07:18:51.420Z,4.93
2022-08-03T07:19:53.938Z,4.85
2022-08-03T07:20:57.455Z,4.93
2022-08-03T07:22:02.084Z,6.00
2022-08-03T07:23:05.008Z,5.07
2022-08-03T07:24:07.517Z,5.30
2022-08-03T07:25:10.240Z,4.80
2022-08-03T07:26:13.212Z,4.57
2022-08-03T07:27:16.617Z,4.40
2022-08-03T07:28:19.720Z,4.47
2022-08-03T07:29:22.418Z,5.00
2022-08-03T07:30:25.306Z,4.53
2022-08-03T07:31:27.899Z,4.22
2022-08-03T07:32:37.183Z,3.85
2022-08-03T07:33:53.810Z,4.35
2022-08-03T07:35:00.608Z,4.65
2022-08-03T07:36:04.472Z,4.65
2022-08-03T07:37:07.163Z,4.00
2022-08-03T07:38:09.798Z,4.78
2022-08-03T07:39:17.679Z,4.03
2022-08-03T07:40:20.935Z,3.40
2022-08-03T07:41:23.662Z,3.25
2022-08-03T07:42:27.728Z,3.72
2022-08-03T07:43:30.357Z,3.15
2022-08-03T07:44:32.929Z,3.05
2022-08-03T07:45:35.538Z,2.97
2022-08-03T07:46:38.215Z,3.22
2022-08-03T07:47:40.866Z,3.38
2022-08-03T07:48:48.939Z,2.65
2022-08-03T07:49:51.898Z,2.42
2022-08-03T07:50:54.528Z,3.15
2022-08-03T07:52:15.751Z,2.50
2022-08-03T07:53:18.482Z,2.35
2022-08-03T07:54:21.965Z,2.38
2022-08-03T07:55:26.090Z,1.90
2022-08-03T07:56:29.039Z,1.65
2022-08-03T07:57:31.676Z,1.60
2022-08-03T07:58:36.315Z,1.52
2022-08-03T07:59:49.062Z,1.63
2022-08-03T08:01:02.499Z,1.30
2022-08-03T08:02:06.910Z,0.68
2022-08-03T08:03:10.143Z,0.80
2022-08-03T08:04:12.872Z,0.60
2022-08-03T08:05:15.465Z,0.65
2022-08-03T08:06:18.338Z,0.70
2022-08-03T08:07:21.035Z,0.77
2022-08-03T08:08:23.789Z,1.10
2022-08-03T08:09:26.454Z,1.00
2022-08-03T08:10:32.849Z,1.13
2022-08-03T08:11:39.730Z,1.38
2022-08-03T08:12:42.748Z,1.75
2022-08-03T08:13:45.499Z,1.50
2022-08-03T08:14:48.379Z,1.30
2022-08-03T08:15:51.254Z,1.73
2022-08-03T08:16:54.041Z,1.67
2022-08-03T08:17:58.911Z,1.63
2022-08-03T08:19:02.487Z,1.27
2022-08-03T08:20:05.696Z,1.45
2022-08-03T08:21:10.825Z,1.70
2022-08-03T08:22:13.473Z,1.23
2022-08-03T08:23:42.462Z,1.48
2022-08-03T08:24:48.596Z,1.30
2022-08-03T08:25:54.123Z,1.13
2022-08-03T08:26:57.396Z,1.20
2022-08-03T08:28:30.434Z,1.23
2022-08-03T08:29:27.743Z,1.10
2022-08-03T08:30:32.462Z,0.93
2022-08-03T08:31:35.063Z,0.80
2022-08-03T08:32:37.683Z,0.88
2022-08-03T08:35:03.506Z,0.90
2022-08-03T08:36:06.500Z,0.90
2022-08-03T08:37:09.052Z,0.80
2022-08-03T08:38:11.722Z,0.75
2022-08-03T08:39:14.349Z,0.73
2022-08-03T08:40:23.278Z,0.90
2022-08-03T08:41:32.263Z,0.95
2022-08-03T08:42:38.185Z,0.80
2022-08-03T08:43:41.697Z,1.10
2022-08-03T08:44:44.391Z,1.05
2022-08-03T08:45:50.239Z,1.23
2022-08-03T08:46:54.013Z,1.10
2022-08-03T08:48:01.035Z,0.95
2022-08-03T08:49:07.977Z,0.80
2022-08-03T08:50:27.469Z,1.20
2022-08-03T08:51:52.749Z,0.80
2022-08-03T08:52:56.674Z,1.10
2022-08-03T08:54:03.002Z,1.13
2022-08-03T08:55:08.380Z,1.10
2022-08-03T08:56:15.580Z,0.90
2022-08-03T08:57:41.571Z,1.20
2022-08-03T08:58:47.758Z,1.20
2022-08-03T08:59:57.373Z,0.95
2022-08-03T09:01:00.270Z,0.90
2022-08-03T09:02:03.371Z,0.90
2022-08-03T09:03:07.202Z,1.08
2022-08-03T09:04:09.992Z,1.00
2022-08-03T09:05:13.904Z,1.15
2022-08-03T09:06:17.083Z,1.20
2022-08-03T09:07:20.696Z,1.00
2022-08-03T09:08:23.699Z,1.27
2022-08-03T09:10:05.265Z,1.13
2022-08-03T09:10:49.275Z,1.23
2022-08-03T09:12:01.062Z,1.08
2022-08-03T09:13:11.679Z,1.30
2022-08-03T09:14:35.301Z,1.33
2022-08-03T09:15:39.326Z,1.00
2022-08-03T09:17:04.775Z,1.45
2022-08-03T09:18:09.423Z,1.40
2022-08-03T09:19:16.967Z,1.10
2022-08-03T09:20:20.943Z,1.40
2022-08-03T09:21:34.663Z,1.42
2022-08-03T09:22:55.662Z,1.25
2022-08-03T09:24:04.179Z,1.60
2022-08-03T09:25:27.200Z,1.33
2022-08-03T09:26:31.317Z,1.63
2022-08-03T09:27:44.331Z,1.67
2022-08-03T09:29:00.703Z,1.60
2022-08-03T09:30:33.680Z,1.40
2022-08-03T09:31:43.164Z,1.58
2022-08-03T09:32:47.680Z,1.70
2022-08-03T09:33:50.520Z,1.67
2022-08-03T09:34:58.050Z,1.40
2022-08-03T09:36:00.868Z,1.40
2022-08-03T09:37:13.960Z,1.40
2022-08-03T09:38:26.356Z,1.65
2022-08-03T09:39:40.948Z,1.42
2022-08-03T09:40:46.322Z,1.35
2022-08-03T09:42:05.346Z,1.70
2022-08-03T09:43:08.452Z,1.67
2022-08-03T09:44:25.179Z,1.58
2022-08-03T09:45:30.157Z,1.70
2022-08-03T09:46:33.473Z,1.55
2022-08-03T09:47:36.674Z,1.60
2022-08-03T09:48:39.252Z,1.70
2022-08-03T09:49:42.981Z,1.67
2022-08-03T09:50:58.615Z,1.80
2022-08-03T09:52:37.665Z,1.83
2022-08-03T09:53:58.693Z,1.70
2022-08-03T09:55:07.924Z,1.75
2022-08-03T09:56:44.570Z,1.98
2022-08-03T09:57:47.322Z,2.00
2022-08-03T09:58:51.197Z,1.80
2022-08-03T10:00:04.598Z,2.10
2022-08-03T10:01:24.233Z,1.90
2022-08-03T10:02:28.176Z,2.40
2022-08-03T10:03:32.834Z,2.33
2022-08-03T10:04:47.982Z,2.10
2022-08-03T10:05:50.831Z,2.67
2022-08-03T10:07:05.450Z,2.60
2022-08-03T10:08:15.397Z,2.28
2022-08-03T10:09:18.540Z,2.75
2022-08-03T10:10:30.146Z,2.70
2022-08-03T10:11:40.853Z,2.65
2022-08-03T10:12:45.105Z,2.85
2022-08-03T10:13:48.681Z,2.78
2022-08-03T10:14:52.721Z,2.80
2022-08-03T10:16:21.353Z,2.92
2022-08-03T10:17:19.443Z,2.50
2022-08-03T10:18:22.260Z,3.08
2022-08-03T10:19:25.893Z,2.70
2022-08-03T10:20:28.726Z,3.20
2022-08-03T10:21:36.687Z,2.40
2022-08-03T10:22:40.498Z,2.95
2022-08-03T10:23:43.102Z,2.67
2022-08-03T10:25:12.724Z,2.65
2022-08-03T10:26:19.410Z,2.55
2022-08-03T10:27:23.606Z,2.35
2022-08-03T10:28:26.831Z,2.88
2022-08-03T10:29:30.231Z,2.83
2022-08-03T10:30:33.396Z,2.65
2022-08-03T10:31:55.875Z,2.67
2022-08-03T10:33:49.582Z,2.15
2022-08-03T10:34:42.598Z,2.35
2022-08-03T10:35:51.286Z,2.15
2022-08-03T10:36:59.495Z,2.15
2022-08-03T10:38:10.559Z,2.05
2022-08-03T10:39:16.213Z,2.20
2022-08-03T10:40:39.641Z,1.90
2022-08-03T10:41:46.271Z,1.58
2022-08-03T10:42:51.650Z,1.70
2022-08-03T10:44:01.907Z,1.73
2022-08-03T10:45:05.947Z,1.63
2022-08-03T10:46:08.738Z,1.58
2022-08-03T10:47:11.648Z,1.83
2022-08-03T10:48:14.683Z,1.73
2022-08-03T10:49:31.861Z,1.52
2022-08-03T10:50:37.172Z,1.67
2022-08-03T10:51:39.993Z,1.67
2022-08-03T10:53:06.647Z,1.30
2022-08-03T10:55:03.474Z,1.35
2022-08-03T10:56:54.632Z,1.23
2022-08-03T10:57:59.179Z,1.45
2022-08-03T10:59:03.821Z,1.40
2022-08-03T11:00:08.149Z,1.20
2022-08-03T11:01:12.221Z,1.63
2022-08-03T11:02:15.340Z,1.40
2022-08-03T11:03:18.690Z,1.05
2022-08-03T11:04:24.352Z,1.17
2022-08-03T11:05:29.072Z,1.40
2022-08-03T11:06:37.442Z,1.13
2022-08-03T11:07:40.636Z,0.93
2022-08-03T11:08:43.225Z,1.10
2022-08-03T11:09:48.683Z,1.02
2022-08-03T11:10:54.068Z,0.90
2022-08-03T11:11:56.754Z,1.00
2022-08-03T11:13:09.741Z,1.27
2022-08-03T11:14:21.209Z,0.98
2022-08-03T11:15:33.542Z,1.00
2022-08-03T11:16:37.454Z,1.20
2022-08-03T11:17:46.623Z,0.90
2022-08-03T11:19:00.608Z,0.82
2022-08-03T11:20:05.232Z,0.70
2022-08-03T11:21:07.891Z,1.13
2022-08-03T11:22:10.515Z,0.95
2022-08-03T11:23:16.858Z,0.90
2022-08-03T11:24:39.224Z,0.98
2022-08-03T11:26:13.536Z,1.08
2022-08-03T11:27:16.204Z,0.70
2022-08-03T11:28:29.023Z,0.80
2022-08-03T11:29:33.246Z,1.00
2022-08-03T11:30:36.035Z,0.85
2022-08-03T11:31:49.890Z,0.60
2022-08-03T11:32:57.808Z,0.55
2022-08-03T11:34:11.407Z,0.90
2022-08-03T11:35:23.891Z,0.70
2022-08-03T11:36:32.105Z,0.70
2022-08-03T11:37:36.072Z,0.77
2022-08-03T11:39:17.262Z,0.80
2022-08-03T11:40:54.356Z,0.80
2022-08-03T11:41:57.093Z,0.88
2022-08-03T11:42:59.704Z,0.60
2022-08-03T11:44:02.997Z,0.80
2022-08-03T11:45:07.794Z,0.77
2022-08-03T11:46:28.097Z,0.90
2022-08-03T11:47:37.694Z,0.80
2022-08-03T11:48:53.474Z,0.73
2022-08-03T11:50:00.698Z,0.77
2022-08-03T11:51:05.186Z,0.82
2022-08-03T11:52:09.382Z,0.93
2022-08-03T11:53:17.303Z,1.13
2022-08-03T11:54:20.108Z,1.10
2022-08-03T11:55:22.776Z,0.88
2022-08-03T11:56:26.043Z,1.00
2022-08-03T11:59:01.335Z,1.08
2022-08-03T11:59:20.710Z,1.20
2022-08-03T12:00:29.204Z,1.20
2022-08-03T12:01:31.814Z,1.23
2022-08-03T12:02:36.811Z,0.70
2022-08-03T12:03:39.460Z,1.10
2022-08-03T12:04:51.695Z,1.00
2022-08-03T12:05:54.795Z,0.90
2022-08-03T12:07:01.439Z,1.05
2022-08-03T12:08:06.930Z,0.95
2022-08-03T12:09:16.248Z,0.90
2022-08-03T12:10:18.908Z,0.85
2022-08-03T12:11:21.652Z,1.20
2022-08-03T12:12:26.062Z,0.98
2022-08-03T12:14:45.074Z,0.80
2022-08-03T12:15:05.767Z,0.70
2022-08-03T12:16:09.566Z,1.08
2022-08-03T12:17:12.229Z,1.13
2022-08-03T12:18:17.636Z,0.85
2022-08-03T12:19:20.329Z,1.27
2022-08-03T12:20:35.276Z,1.27
2022-08-03T12:21:57.390Z,1.60
2022-08-03T12:23:05.328Z,1.10
2022-08-03T12:24:08.133Z,1.30
2022-08-03T12:25:38.562Z,1.00
2022-08-03T12:26:58.336Z,1.33
2022-08-03T12:28:36.450Z,1.10
2022-08-03T12:29:40.400Z,1.00
2022-08-03T12:30:44.014Z,1.30
2022-08-03T12:31:47.345Z,1.02
2022-08-03T12:32:50.010Z,1.20
2022-08-03T12:34:03.208Z,1.13
2022-08-03T12:35:06.358Z,0.75
2022-08-03T12:36:10.232Z,0.80
2022-08-03T12:37:22.130Z,1.25
2022-08-03T12:38:25.891Z,1.00
2022-08-03T12:39:31.015Z,1.05
2022-08-03T12:40:33.933Z,1.10
2022-08-03T12:41:39.018Z,1.10
2022-08-03T12:42:41.776Z,1.10
2022-08-03T12:43:51.402Z,1.17
2022-08-03T12:44:56.335Z,1.17
2022-08-03T12:46:09.281Z,1.05
2022-08-03T12:53:05.328Z,1.08
2022-08-03T12:54:24.722Z,1.15
2022-08-03T12:55:56.377Z,1.05
2022-08-03T12:57:08.398Z,1.50
2022-08-03T12:58:34.556Z,1.30
2022-08-03T12:59:53.863Z,1.27
2022-08-03T13:00:56.591Z,1.25
2022-08-03T13:01:59.720Z,1.27
2022-08-03T13:04:35.330Z,1.27
2022-08-03T13:05:45.039Z,1.30
2022-08-03T13:07:15.445Z,1.48
2022-08-03T13:09:26.275Z,1.20
2022-08-03T13:10:33.799Z,1.23
2022-08-03T13:11:57.772Z,1.17
2022-08-03T13:13:00.314Z,1.52
2022-08-03T13:14:03.033Z,1.50
2022-08-03T13:15:06.136Z,1.30
2022-08-03T13:16:08.689Z,1.40
2022-08-03T13:17:11.892Z,1.20
2022-08-03T13:18:15.237Z,1.67
2022-08-03T13:19:20.093Z,1.20
2022-08-03T13:20:23.657Z,0.95
2022-08-03T13:21:29.339Z,1.33
2022-08-03T13:22:34.911Z,1.20
2022-08-03T13:23:37.475Z,1.45
2022-08-03T13:24:40.161Z,1.10
2022-08-03T13:25:55.275Z,0.95
2022-08-03T13:26:59.452Z,1.00
2022-08-03T13:28:06.498Z,1.05
2022-08-03T13:29:10.023Z,1.17
2022-08-03T13:30:13.189Z,1.42
2022-08-03T13:31:15.936Z,1.02
2022-08-03T13:32:18.475Z,1.10
2022-08-03T13:33:20.929Z,1.20
2022-08-03T13:34:24.176Z,1.10
2022-08-03T13:35:26.815Z,1.10
2022-08-03T13:36:29.948Z,1.20
2022-08-03T13:37:47.774Z,1.83
2022-08-03T13:38:51.734Z,1.60
2022-08-03T13:39:58.745Z,1.10
2022-08-03T13:41:04.988Z,1.40
2022-08-03T13:42:08.210Z,1.40
2022-08-03T13:43:13.085Z,1.40
2022-08-03T13:44:29.129Z,1.38
2022-08-03T13:45:32.449Z,1.25
2022-08-03T13:46:35.140Z,1.67
2022-08-03T13:47:38.036Z,1.27
2022-08-03T13:48:40.727Z,1.27
2022-08-03T13:49:55.849Z,1.55
2022-08-03T13:51:05.603Z,1.05
2022-08-03T13:52:24.296Z,1.40
2022-08-03T13:53:26.992Z,1.33
2022-08-03T13:54:30.846Z,1.55
2022-08-03T13:55:33.685Z,1.60
2022-08-03T13:56:36.387Z,1.50
2022-08-03T13:58:02.724Z,1.50
2022-08-03T13:59:01.800Z,1.35
2022-08-03T14:00:05.809Z,1.50
2022-08-03T14:01:08.751Z,1.40
2022-08-03T14:02:11.776Z,1.67
2022-08-03T14:03:15.026Z,1.63
2022-08-03T14:04:21.630Z,1.70
2022-08-03T14:05:25.095Z,1.52
2022-08-03T14:06:28.052Z,1.33
2022-08-03T14:07:30.702Z,1.23
2022-08-03T14:08:33.237Z,1.40
2022-08-03T14:09:35.990Z,1.33
2022-08-03T14:10:41.489Z,1.65
2022-08-03T14:12:04.014Z,1.65
2022-08-03T14:13:07.478Z,1.40
2022-08-03T14:14:10.103Z,1.35
2022-08-03T14:15:13.177Z,1.35
2022-08-03T14:16:16.995Z,1.70
2022-08-03T14:17:42.234Z,1.40
2022-08-03T14:18:52.673Z,1.60
2022-08-03T14:19:55.290Z,1.63
2022-08-03T14:21:06.048Z,1.60
2022-08-03T14:22:09.351Z,1.30
2022-08-03T14:23:12.754Z,1.58
2022-08-03T14:24:16.951Z,1.50
2022-08-03T14:25:19.569Z,1.50
2022-08-03T14:26:22.265Z,1.80
2022-08-03T14:27:24.940Z,1.45
2022-08-03T14:28:28.697Z,1.50
2022-08-03T14:29:31.346Z,1.45
2022-08-03T14:30:34.672Z,1.40
2022-08-03T14:32:11.878Z,1.90
2022-08-03T14:33:00.999Z,1.38
2022-08-03T14:34:03.772Z,1.17
2022-08-03T14:35:06.761Z,1.60
2022-08-03T14:36:09.286Z,1.30
2022-08-03T14:37:11.849Z,1.33
2022-08-03T14:38:14.805Z,1.50
2022-08-03T14:39:17.489Z,1.20
2022-08-03T14:40:20.626Z,1.15
2022-08-03T14:41:23.418Z,1.38
2022-08-03T14:42:26.045Z,1.70
2022-08-03T14:43:34.070Z,1.33
2022-08-03T14:44:37.148Z,1.75
2022-08-03T14:45:40.517Z,1.40
2022-08-03T14:46:43.053Z,1.67
2022-08-03T14:50:28.892Z,1.65
2022-08-03T14:50:37.431Z,1.48
2022-08-03T14:50:41.923Z,1.48
2022-08-03T14:51:51.575Z,1.50
2022-08-03T14:52:56.724Z,1.65
2022-08-03T14:53:59.443Z,1.42
2022-08-03T14:55:02.266Z,1.45
2022-08-03T14:56:10.151Z,1.30
2022-08-03T14:57:13.249Z,1.80
2022-08-03T14:58:19.987Z,1.65
2022-08-03T14:59:23.898Z,1.42
2022-08-03T15:00:26.990Z,1.52
2022-08-03T15:02:06.300Z,1.60
2022-08-03T15:02:52.317Z,1.52